Terminal Aerodrome Forecast
Issued by NWS Wilmington, OH

Current Version | Previous Version | Graphics & Text | Print | Product List | Glossary On
Versions: 1 2 3 4 5 6 7 8 9 10 11 12 13 14 15
000
FTUS41 KILN 280500
TAFDAY
TAF
KDAY 280520Z 2806/0106 10005KT P6SM BKN120
     FM281800 10007KT P6SM SCT025 BKN080
     FM010300 12006KT 3SM -SN OVC025=

USA.gov is the U.S. government's official web portal to all federal, state and local government web resources and services.